首页
METAR-TAF:

METAR-TAF

机场 :

阿尔伯特, 法国

纬度: 49-58-21N, 经度: 002-41-29E, 海拔: 111米

当前天气观测

该预报发布于22分钟前的02:30 UTC
风速14节,风向北转东北
温度 16°C
湿度 94%
气压 1025 hPa
能見度: 7000
散云层高于900英尺
阴天层高于11000英尺

METAR: LFAQ 270230Z AUTO 03014KT 7000 SCT009 OVC110 16/15 Q1025

时间: 04:52 (02:52 UTC)

预报

该预报发布于12小时和52分钟前的14:00 UTC
预报有效从26日的 15点(UTC)到 26日的 24点(UTC)
风速15节,风向东北
能见度10公里或以上
1500米以下无云,无积雨云
短暂存在
从 26日的 15点(UTC)到 26日的 24点(UTC)
风速15节,风向东北,有时为25节阵风

TAF: LFAQ 261400Z 2615/2624 04015KT CAVOK TEMPO 2615/2624 04015G25KT

超过4000个机场的气象观测和天气预报(METAR&TAF报告)。

可查询的气象台以黄色和红色小点在地图上表示。

将鼠标移到小点上方,可查看气象台名称。

然后点击查看天气观测和预报。

如需切换地图:点击带黑十字的绿色按钮放大地图;点击带横线的绿色按钮缩小地图;或者点击绿色箭头查看邻近地区的地图。


METAR-TAF: